HESG

Sohag Airport

Sohag, Egypt
METAR HESG 260300Z 27005KT CAVOK 26/03 Q1004 NOSIG
Observed Flight Rules
May-26 @ 03:00 UTC (an hour ago) Visual Flight Rules
Wind Visibility Clouds
270° at 5 knots 10,000+ meters
  • Clear skies
Temperatures Readings
Current 26°C / 79°F
Dewpoint 3°C / 37°F
Humidity 23%
Altimeter 29.65" Hg
Pressure 1004 hPa
Elevation 70
METAR HESG 260300Z 27005KT CAVOK 26/03 Q1004 NOSIG
Observed Flight Rules
May-26 @ 03:00 UTC
(an hour ago)
VFR
Wind Visibility
270° at 5 knots 10,000+ meters
Clouds
  • Clear skies
Temperature Dewpoint
26°C / 79°F 3°C / 37°F
Humidity Altimeter Pressure
23% 29.65" Hg 1004 hPa